KBKE

Baker City Municipal Airport

Baker City, Oregon, USA
METAR KBKE 221653Z AUTO 31008KT 10SM CLR 20/11 A2995 RMK AO2 SLP124 T02000111
Observed Flight Rules
May-22 @ 16:53 UTC (59 minutes ago) Visual Flight Rules
Wind Visibility Clouds
310° at 8 knots 10 miles
  • Clear skies
Temperatures Readings
Current 20°C / 68°F
Dewpoint 11°C / 52°F
Humidity 56%
Altimeter 29.95" Hg
Pressure 1012.4 hPa
Elevation 1024
METAR KBKE 221653Z AUTO 31008KT 10SM CLR 20/11 A2995 RMK AO2 SLP124 T02000111
Observed Flight Rules
May-22 @ 16:53 UTC
(59 minutes ago)
VFR
Wind Visibility
310° at 8 knots 10 miles
Clouds
  • Clear skies
Temperature Dewpoint
20°C / 68°F 11°C / 52°F
Humidity Altimeter Pressure
56% 29.95" Hg 1012.4 hPa